createdAt,value
2024-01-11T00:01:05.921Z,76.90
2024-01-11T00:03:32.911Z,77.80
2024-01-11T00:06:02.285Z,78.60
2024-01-11T00:08:29.738Z,78.43
2024-01-11T00:10:57.377Z,78.77
2024-01-11T00:13:24.789Z,74.43
2024-01-11T00:15:51.867Z,74.87
2024-01-11T00:18:19.219Z,69.80
2024-01-11T00:20:46.687Z,59.90
2024-01-11T00:23:14.446Z,56.50
2024-01-11T00:25:41.732Z,56.13
2024-01-11T00:28:08.793Z,62.47
2024-01-11T00:30:36.105Z,58.90
2024-01-11T00:33:04.357Z,60.77
2024-01-11T00:35:32.511Z,63.97
2024-01-11T00:38:00.162Z,75.07
2024-01-11T00:40:27.245Z,80.00
2024-01-11T00:42:54.350Z,70.30
2024-01-11T00:45:22.108Z,74.80
2024-01-11T00:47:49.205Z,73.40
2024-01-11T00:50:16.458Z,74.40
2024-01-11T00:52:43.740Z,73.00
2024-01-11T00:55:10.970Z,68.03
2024-01-11T00:57:38.297Z,68.13
2024-01-11T01:00:06.539Z,79.13
2024-01-11T01:02:34.094Z,71.27
2024-01-11T01:05:01.373Z,70.50
2024-01-11T01:07:28.916Z,73.17
2024-01-11T01:09:56.166Z,74.00
2024-01-11T01:12:23.155Z,74.57
2024-01-11T01:14:50.228Z,76.07
2024-01-11T01:17:17.730Z,74.87
2024-01-11T01:19:45.832Z,75.47
2024-01-11T01:22:13.220Z,77.33
2024-01-11T01:24:40.533Z,75.47
2024-01-11T01:27:07.910Z,77.83
2024-01-11T01:29:35.294Z,80.93
2024-01-11T01:32:02.848Z,82.20
2024-01-11T01:34:30.305Z,80.03
2024-01-11T01:36:57.745Z,80.53
2024-01-11T01:39:25.216Z,82.90
2024-01-11T01:41:52.513Z,79.90
2024-01-11T01:44:20.041Z,77.50
2024-01-11T01:46:48.633Z,74.60
2024-01-11T01:49:16.113Z,74.60
2024-01-11T01:51:43.393Z,75.47
2024-01-11T01:54:11.134Z,71.60
2024-01-11T01:56:38.239Z,74.80
2024-01-11T01:59:06.103Z,73.17
2024-01-11T02:04:21.860Z,73.50
2024-01-11T02:06:49.637Z,70.90
2024-01-11T02:09:18.856Z,67.00
2024-01-11T02:11:46.837Z,63.07
2024-01-11T02:14:14.504Z,60.33
2024-01-11T02:16:43.561Z,63.03
2024-01-11T02:19:15.584Z,62.90
2024-01-11T02:21:45.019Z,60.10
2024-01-11T02:24:13.099Z,60.87
2024-01-11T02:27:01.514Z,60.80
2024-01-11T02:29:29.899Z,57.77
2024-01-11T02:31:57.803Z,58.80
2024-01-11T02:34:30.292Z,57.40
2024-01-11T02:36:57.620Z,57.17
2024-01-11T02:39:26.503Z,56.27
2024-01-11T02:41:57.285Z,57.47
2024-01-11T02:44:24.635Z,52.43
2024-01-11T02:46:51.747Z,48.53
2024-01-11T02:49:19.423Z,48.73
2024-01-11T02:51:46.782Z,50.17
2024-01-11T02:54:14.208Z,46.67
2024-01-11T02:56:41.461Z,49.40
2024-01-11T02:59:09.270Z,48.03
2024-01-11T03:01:37.361Z,47.83
2024-01-11T03:04:04.876Z,45.00
2024-01-11T03:06:32.981Z,42.93
2024-01-11T03:09:00.724Z,44.83
2024-01-11T03:11:29.216Z,44.97
2024-01-11T03:13:57.694Z,46.33
2024-01-11T03:16:25.025Z,46.90
2024-01-11T03:18:52.136Z,47.33
2024-01-11T03:21:19.970Z,49.97
2024-01-11T03:23:46.996Z,49.57
2024-01-11T03:26:20.236Z,50.17
2024-01-11T03:28:47.377Z,48.40
2024-01-11T03:31:14.479Z,47.83
2024-01-11T03:33:42.059Z,47.80
2024-01-11T03:36:10.606Z,50.13
2024-01-11T03:38:38.529Z,52.03
2024-01-11T03:41:11.513Z,49.23
2024-01-11T03:43:39.479Z,49.57
2024-01-11T03:46:07.243Z,50.27
2024-01-11T03:48:34.743Z,48.97
2024-01-11T03:51:01.918Z,44.73
2024-01-11T03:53:30.272Z,43.77
2024-01-11T03:55:57.404Z,42.13
2024-01-11T03:58:25.140Z,41.37
2024-01-11T04:17:24.518Z,40.15
2024-01-11T04:19:51.648Z,42.13
2024-01-11T04:22:18.816Z,40.97
2024-01-11T04:24:45.841Z,42.93
2024-01-11T04:27:13.375Z,39.53
2024-01-11T04:29:40.458Z,38.67
2024-01-11T04:32:07.459Z,38.97
2024-01-11T04:34:34.848Z,43.87
2024-01-11T04:37:02.212Z,40.60
2024-01-11T04:39:30.190Z,40.40
2024-01-11T04:41:57.623Z,42.37
2024-01-11T04:44:27.876Z,42.17
2024-01-11T04:46:55.183Z,44.00
2024-01-11T04:49:22.821Z,45.07
2024-01-11T04:51:49.905Z,45.83
2024-01-11T04:54:16.913Z,43.10
2024-01-11T04:56:43.933Z,44.53
2024-01-11T04:59:10.924Z,46.77
2024-01-11T05:01:38.238Z,47.17
2024-01-11T05:04:05.446Z,49.40
2024-01-11T05:06:32.851Z,48.23
2024-01-11T05:09:00.248Z,50.53
2024-01-11T05:11:28.139Z,52.03
2024-01-11T05:13:55.531Z,52.60
2024-01-11T05:16:28.660Z,48.13
2024-01-11T05:18:58.066Z,47.23
2024-01-11T05:21:25.727Z,51.33
2024-01-11T05:23:54.162Z,50.83
2024-01-11T05:26:22.043Z,52.33
2024-01-11T05:28:49.498Z,52.70
2024-01-11T05:31:18.052Z,50.40
2024-01-11T05:33:46.103Z,51.50
2024-01-11T05:36:13.239Z,52.17
2024-01-11T05:38:41.995Z,52.57
2024-01-11T05:41:10.253Z,54.43
2024-01-11T05:43:39.222Z,57.87
2024-01-11T05:46:06.746Z,57.17
2024-01-11T05:48:33.723Z,60.07
2024-01-11T05:51:01.533Z,63.53
2024-01-11T05:53:29.376Z,65.13
2024-01-11T05:55:56.727Z,64.43
2024-01-11T05:58:24.230Z,63.73
2024-01-11T06:00:51.765Z,60.87
2024-01-11T06:03:18.940Z,65.10
2024-01-11T06:05:46.188Z,64.33
2024-01-11T06:08:13.604Z,65.73
2024-01-11T06:10:40.985Z,67.47
2024-01-11T06:13:08.162Z,66.43
2024-01-11T06:15:35.494Z,66.77
2024-01-11T06:18:03.021Z,68.90
2024-01-11T06:20:30.134Z,71.13
2024-01-11T06:22:57.700Z,70.90
2024-01-11T06:25:24.967Z,70.63
2024-01-11T06:27:52.287Z,69.23
2024-01-11T06:30:19.493Z,60.43
2024-01-11T06:32:46.618Z,58.03
2024-01-11T06:35:13.856Z,58.23
2024-01-11T06:37:40.853Z,58.90
2024-01-11T06:40:09.777Z,57.57
2024-01-11T06:42:37.426Z,56.47
2024-01-11T06:45:04.870Z,54.53
2024-01-11T06:47:32.114Z,54.73
2024-01-11T06:49:59.610Z,51.80
2024-01-11T06:52:26.899Z,51.85
2024-01-11T06:54:53.978Z,55.78
2024-01-11T06:57:21.020Z,53.42
2024-01-11T06:59:48.208Z,52.75
2024-01-11T07:04:57.465Z,52.75
2024-01-11T07:07:24.381Z,54.08
2024-01-11T07:09:51.628Z,54.42
2024-01-11T07:12:19.007Z,57.83
2024-01-11T07:14:46.066Z,59.75
2024-01-11T07:17:13.176Z,63.88
2024-01-11T07:19:40.124Z,63.75
2024-01-11T07:22:07.181Z,69.00
2024-01-11T07:24:39.244Z,69.68
2024-01-11T07:27:07.761Z,71.80
2024-01-11T07:29:35.922Z,66.03
2024-01-11T07:32:03.330Z,72.95
2024-01-11T07:34:31.195Z,72.28
2024-01-11T07:36:58.675Z,75.03
2024-01-11T07:39:25.848Z,77.90
2024-01-11T07:41:54.165Z,82.13
2024-01-11T07:44:22.318Z,82.93
2024-01-11T07:46:53.537Z,83.95
2024-01-11T07:49:22.408Z,74.47
2024-01-11T07:51:49.832Z,71.82
2024-01-11T07:54:17.518Z,64.55
2024-01-11T07:56:45.390Z,76.35
2024-01-11T07:59:16.555Z,86.13
2024-01-11T08:01:43.923Z,87.78
2024-01-11T08:04:11.617Z,91.28
2024-01-11T08:06:39.657Z,94.43
2024-01-11T08:09:07.024Z,95.05
2024-01-11T08:11:36.839Z,94.43
2024-01-11T08:14:07.462Z,90.68
2024-01-11T08:16:34.839Z,87.80
2024-01-11T08:19:05.178Z,88.50
2024-01-11T08:21:32.353Z,79.05
2024-01-11T08:24:02.859Z,80.53
2024-01-11T08:26:31.818Z,76.65
2024-01-11T08:28:59.088Z,76.68
2024-01-11T08:31:26.493Z,73.00
2024-01-11T08:33:55.024Z,72.53
2024-01-11T08:36:22.329Z,82.15
2024-01-11T08:38:49.965Z,106.28
2024-01-11T08:41:17.007Z,109.65
2024-01-11T08:43:44.145Z,111.90
2024-01-11T08:46:11.174Z,110.55
2024-01-11T08:48:38.655Z,99.85
2024-01-11T08:51:06.361Z,94.35
2024-01-11T08:53:33.573Z,89.15
2024-01-11T08:56:01.308Z,93.13
2024-01-11T08:58:28.341Z,85.18
2024-01-11T09:00:55.505Z,81.63
2024-01-11T09:03:22.688Z,79.30
2024-01-11T09:05:50.246Z,80.38
2024-01-11T09:08:17.672Z,77.20
2024-01-11T09:10:45.067Z,72.78
2024-01-11T09:13:14.005Z,76.18
2024-01-11T09:15:42.049Z,81.43
2024-01-11T09:18:09.488Z,82.90
2024-01-11T09:20:36.987Z,82.07
2024-01-11T09:23:05.415Z,88.00
2024-01-11T09:25:32.845Z,92.28
2024-01-11T09:28:00.959Z,97.10
2024-01-11T09:30:28.748Z,88.95
2024-01-11T09:32:57.647Z,83.80
2024-01-11T09:35:24.974Z,79.68
2024-01-11T09:37:53.209Z,80.40
2024-01-11T09:40:20.657Z,79.32
2024-01-11T09:42:47.790Z,78.43
2024-01-11T09:45:18.740Z,73.70
2024-01-11T09:47:50.233Z,71.75
2024-01-11T09:50:21.627Z,72.63
2024-01-11T09:52:50.278Z,71.70
2024-01-11T09:55:18.108Z,69.53
2024-01-11T09:57:50.095Z,65.93
2024-01-11T10:00:23.809Z,67.22
2024-01-11T10:02:51.221Z,68.15
2024-01-11T10:05:19.476Z,63.58
2024-01-11T10:07:49.594Z,62.40
2024-01-11T10:10:19.460Z,64.22
2024-01-11T10:12:46.545Z,62.22
2024-01-11T10:15:15.192Z,60.42
2024-01-11T10:17:45.837Z,56.63
2024-01-11T10:20:15.974Z,59.47
2024-01-11T10:22:44.420Z,57.70
2024-01-11T10:25:17.111Z,64.15
2024-01-11T10:27:47.031Z,62.08
2024-01-11T10:30:18.459Z,61.38
2024-01-11T10:32:46.851Z,56.70
2024-01-11T10:35:14.792Z,58.00
2024-01-11T10:37:44.313Z,58.13
2024-01-11T10:40:14.809Z,58.45
2024-01-11T10:42:47.154Z,56.58
2024-01-11T10:45:19.758Z,57.80
2024-01-11T10:47:56.043Z,59.17
2024-01-11T10:50:25.370Z,56.30
2024-01-11T10:53:31.745Z,59.08
2024-01-11T10:56:00.822Z,58.13
2024-01-11T10:58:28.816Z,53.85
2024-01-11T11:00:56.835Z,55.17
2024-01-11T11:03:27.744Z,60.50
2024-01-11T11:05:57.283Z,55.22
2024-01-11T11:08:26.326Z,57.55
2024-01-11T11:11:00.417Z,56.13
2024-01-11T11:13:28.608Z,53.50
2024-01-11T11:15:57.620Z,52.05
2024-01-11T11:18:26.334Z,51.67
2024-01-11T11:20:55.623Z,53.05
2024-01-11T11:23:22.726Z,51.55
2024-01-11T11:25:50.685Z,50.67
2024-01-11T11:28:19.963Z,50.20
2024-01-11T11:30:50.351Z,55.72
2024-01-11T11:33:20.114Z,48.05
2024-01-11T11:35:48.358Z,42.25
2024-01-11T11:38:23.008Z,43.97
2024-01-11T11:40:53.880Z,42.45
2024-01-11T11:43:23.095Z,41.25
2024-01-11T11:45:52.976Z,42.38
2024-01-11T11:48:40.211Z,37.50
2024-01-11T11:51:07.385Z,39.40
2024-01-11T11:53:39.003Z,37.03
2024-01-11T11:56:06.934Z,44.67
2024-01-11T11:58:35.771Z,47.58
2024-01-11T12:04:32.401Z,45.47
2024-01-11T12:06:59.481Z,47.92
2024-01-11T12:09:26.763Z,48.33
2024-01-11T12:12:02.168Z,43.83
2024-01-11T12:14:34.806Z,47.50
2024-01-11T12:17:02.054Z,48.30
2024-01-11T12:19:29.836Z,47.35
2024-01-11T12:21:57.281Z,53.53
2024-01-11T12:24:25.112Z,50.58
2024-01-11T12:26:53.492Z,48.33
2024-01-11T12:29:21.844Z,48.90
2024-01-11T12:31:49.263Z,52.35
2024-01-11T12:34:18.080Z,51.20
2024-01-11T12:36:45.194Z,48.88
2024-01-11T12:39:14.660Z,51.30
2024-01-11T12:41:43.538Z,51.97
2024-01-11T12:44:11.186Z,48.88
2024-01-11T12:46:38.481Z,44.17
2024-01-11T12:49:05.557Z,47.55
2024-01-11T12:51:32.504Z,47.65
2024-01-11T12:53:59.853Z,46.40
2024-01-11T12:56:26.897Z,44.33
2024-01-11T12:59:07.604Z,45.85
2024-01-11T13:01:34.700Z,42.92
2024-01-11T13:04:06.295Z,44.80
2024-01-11T13:06:35.829Z,48.72
2024-01-11T13:09:03.402Z,48.30
2024-01-11T13:11:30.623Z,48.22
2024-01-11T13:13:59.274Z,49.50
2024-01-11T13:16:26.784Z,46.58
2024-01-11T13:18:53.803Z,46.33
2024-01-11T13:21:20.981Z,48.25
2024-01-11T13:23:48.149Z,47.88
2024-01-11T13:26:15.429Z,45.55
2024-01-11T13:28:42.315Z,45.47
2024-01-11T13:31:11.276Z,48.88
2024-01-11T13:33:38.732Z,49.72
2024-01-11T13:36:06.375Z,47.40
2024-01-11T13:38:33.285Z,47.20
2024-01-11T13:41:00.266Z,51.25
2024-01-11T13:43:27.710Z,54.40
2024-01-11T13:45:56.213Z,51.83
2024-01-11T13:48:23.469Z,53.92
2024-01-11T13:50:50.688Z,51.40
2024-01-11T13:53:18.385Z,54.17
2024-01-11T13:55:45.407Z,50.35
2024-01-11T13:58:14.001Z,49.75
2024-01-11T14:00:40.925Z,52.72
2024-01-11T14:03:10.180Z,51.40
2024-01-11T14:05:38.415Z,49.88
2024-01-11T14:08:09.279Z,53.30
2024-01-11T14:10:36.819Z,52.97
2024-01-11T14:13:04.447Z,53.50
2024-01-11T14:15:33.959Z,54.45
2024-01-11T14:18:01.243Z,57.47
2024-01-11T14:20:28.994Z,57.97
2024-01-11T14:22:56.334Z,60.85
2024-01-11T14:25:26.306Z,61.67
2024-01-11T14:27:54.369Z,61.38
2024-01-11T14:30:24.311Z,57.13
2024-01-11T14:32:51.569Z,59.17
2024-01-11T14:35:19.791Z,62.13
2024-01-11T14:37:46.968Z,63.50
2024-01-11T14:40:14.195Z,60.50
2024-01-11T14:42:41.736Z,64.68
2024-01-11T14:45:09.371Z,63.40
2024-01-11T14:47:37.317Z,69.03
2024-01-11T14:50:06.069Z,65.28
2024-01-11T14:52:33.460Z,64.60
2024-01-11T14:55:00.792Z,67.50
2024-01-11T14:57:27.933Z,62.95
2024-01-11T14:59:55.865Z,65.03
2024-01-11T15:02:23.335Z,67.30
2024-01-11T15:04:51.233Z,69.72
2024-01-11T15:07:18.264Z,72.57
2024-01-11T15:09:45.628Z,71.05
2024-01-11T15:12:12.682Z,68.55
2024-01-11T15:14:39.827Z,68.88
2024-01-11T15:17:07.464Z,63.97
2024-01-11T15:19:34.727Z,69.82
2024-01-11T15:22:02.140Z,66.70
2024-01-11T15:24:30.154Z,72.32
2024-01-11T15:26:57.532Z,71.25
2024-01-11T15:29:24.623Z,64.68
2024-01-11T15:31:52.180Z,62.67
2024-01-11T15:34:20.298Z,64.28
2024-01-11T15:36:48.035Z,68.13
2024-01-11T15:39:24.846Z,61.90
2024-01-11T15:41:57.616Z,59.33
2024-01-11T15:44:28.606Z,60.92
2024-01-11T15:46:57.673Z,65.70
2024-01-11T15:49:25.207Z,67.35
2024-01-11T15:51:52.775Z,71.82
2024-01-11T15:54:22.383Z,73.47
2024-01-11T15:56:50.374Z,81.30
2024-01-11T15:59:18.074Z,79.68
2024-01-11T16:01:51.508Z,74.30
2024-01-11T16:04:27.832Z,78.82
2024-01-11T16:06:57.841Z,66.47
2024-01-11T16:09:25.452Z,65.00
2024-01-11T16:12:06.648Z,63.28
2024-01-11T16:14:34.679Z,71.63
2024-01-11T16:17:24.693Z,68.10
2024-01-11T16:20:01.071Z,72.95
2024-01-11T16:26:31.596Z,68.85
2024-01-11T16:29:02.631Z,66.07
2024-01-11T16:31:48.630Z,71.30
2024-01-11T16:34:29.597Z,69.13
2024-01-11T16:36:56.648Z,70.67
2024-01-11T16:39:24.189Z,71.37
2024-01-11T16:41:51.384Z,76.55
2024-01-11T16:44:25.657Z,82.50
2024-01-11T16:46:54.729Z,87.63
2024-01-11T16:49:28.326Z,78.87
2024-01-11T16:52:02.252Z,76.87
2024-01-11T16:54:38.983Z,77.55
2024-01-11T16:57:06.319Z,71.33
2024-01-11T16:59:34.456Z,74.53
2024-01-11T17:02:01.731Z,71.50
2024-01-11T17:04:30.479Z,65.80
2024-01-11T17:06:57.598Z,67.50
2024-01-11T17:09:24.601Z,65.60
2024-01-11T17:11:52.775Z,68.65
2024-01-11T17:14:19.927Z,74.43
2024-01-11T17:16:49.434Z,72.53
2024-01-11T17:19:16.454Z,70.78
2024-01-11T17:21:48.045Z,68.43
2024-01-11T17:24:15.062Z,68.50
2024-01-11T17:26:42.535Z,68.72
2024-01-11T17:29:09.602Z,66.60
2024-01-11T17:31:45.472Z,67.93
2024-01-11T17:34:12.608Z,73.40
2024-01-11T17:36:39.974Z,73.25
2024-01-11T17:39:08.814Z,72.43
2024-01-11T17:41:41.398Z,72.07
2024-01-11T17:44:09.194Z,69.90
2024-01-11T17:46:37.886Z,73.43
2024-01-11T17:49:07.348Z,70.20
2024-01-11T17:51:34.407Z,69.53
2024-01-11T17:54:01.362Z,67.83
2024-01-11T17:56:28.784Z,68.13
2024-01-11T17:58:56.659Z,70.50
2024-01-11T18:01:26.494Z,72.43
2024-01-11T18:03:53.738Z,73.10
2024-01-11T18:06:20.917Z,79.25
2024-01-11T18:08:48.251Z,73.27
2024-01-11T18:11:15.522Z,74.10
2024-01-11T18:13:42.571Z,70.23
2024-01-11T18:16:09.818Z,71.33
2024-01-11T18:18:37.205Z,68.47
2024-01-11T18:21:05.210Z,72.93
2024-01-11T18:23:32.615Z,72.23
2024-01-11T18:25:59.645Z,71.97
2024-01-11T18:28:26.836Z,69.60
2024-01-11T18:30:53.778Z,80.30
2024-01-11T18:33:20.779Z,82.97
2024-01-11T18:35:48.819Z,83.40
2024-01-11T18:38:16.319Z,83.87
2024-01-11T18:40:43.419Z,82.10
2024-01-11T18:43:10.499Z,83.30
2024-01-11T18:45:37.515Z,89.93
2024-01-11T18:48:12.724Z,77.90
2024-01-11T18:50:40.346Z,71.95
2024-01-11T18:53:07.837Z,76.35
2024-01-11T18:55:35.180Z,76.38
2024-01-11T18:58:03.486Z,78.77
2024-01-11T19:00:32.424Z,72.77
2024-01-11T19:02:59.952Z,68.77
2024-01-11T19:05:27.170Z,64.43
2024-01-11T19:07:54.699Z,64.67
2024-01-11T19:10:21.785Z,71.00
2024-01-11T19:12:49.265Z,69.27
2024-01-11T19:15:16.352Z,71.65
2024-01-11T19:17:43.767Z,69.35
2024-01-11T19:20:11.191Z,67.95
2024-01-11T19:22:38.274Z,72.65
2024-01-11T19:25:06.192Z,71.38
2024-01-11T19:27:34.272Z,73.40
2024-01-11T19:30:08.838Z,69.10
2024-01-11T19:32:44.895Z,65.85
2024-01-11T19:35:12.325Z,62.58
2024-01-11T19:37:40.849Z,58.57
2024-01-11T19:40:08.948Z,58.72
2024-01-11T19:42:36.324Z,54.97
2024-01-11T19:45:03.963Z,57.30
2024-01-11T19:47:31.625Z,54.20
2024-01-11T19:49:58.784Z,56.03
2024-01-11T19:52:25.861Z,58.40
2024-01-11T19:54:53.115Z,56.27
2024-01-11T19:57:20.422Z,57.80
2024-01-11T19:59:47.576Z,59.67
2024-01-11T20:04:34.841Z,62.33
2024-01-11T20:07:03.534Z,65.40
2024-01-11T20:09:30.888Z,64.20
2024-01-11T20:11:57.925Z,63.23
2024-01-11T20:14:25.487Z,68.50
2024-01-11T20:16:52.812Z,66.43
2024-01-11T20:19:19.997Z,66.13
2024-01-11T20:21:47.203Z,65.43
2024-01-11T20:24:14.436Z,66.43
2024-01-11T20:26:41.549Z,68.13
2024-01-11T20:29:11.036Z,84.07
2024-01-11T20:31:39.118Z,68.40
2024-01-11T20:34:08.531Z,65.82
2024-01-11T20:36:35.985Z,62.97
2024-01-11T20:39:05.666Z,64.75
2024-01-11T20:41:33.628Z,63.17
2024-01-11T20:44:01.026Z,61.80
2024-01-11T20:46:27.926Z,59.50
2024-01-11T20:48:55.115Z,61.47
2024-01-11T20:51:22.812Z,58.63
2024-01-11T20:53:51.304Z,62.42
2024-01-11T20:56:18.426Z,63.10
2024-01-11T20:58:46.072Z,63.33
2024-01-11T21:01:13.514Z,61.75
2024-01-11T21:03:41.061Z,64.40
2024-01-11T21:06:10.779Z,64.37
2024-01-11T21:08:37.932Z,60.63
2024-01-11T21:11:05.390Z,62.97
2024-01-11T21:13:32.469Z,62.67
2024-01-11T21:16:00.049Z,59.63
2024-01-11T21:18:28.584Z,62.17
2024-01-11T21:20:59.545Z,59.30
2024-01-11T21:23:26.796Z,58.13
2024-01-11T21:25:53.953Z,57.97
2024-01-11T21:28:21.050Z,59.27
2024-01-11T21:30:50.570Z,56.92
2024-01-11T21:33:18.133Z,58.25
2024-01-11T21:35:46.706Z,57.60
2024-01-11T21:38:15.447Z,58.53
2024-01-11T21:40:43.034Z,57.58
2024-01-11T21:43:10.201Z,62.37
2024-01-11T21:45:38.044Z,58.00
2024-01-11T21:48:05.912Z,55.53
2024-01-11T21:50:33.289Z,58.13
2024-01-11T21:53:00.597Z,56.10
2024-01-11T21:55:27.916Z,54.70
2024-01-11T21:57:55.984Z,56.63
2024-01-11T22:00:23.424Z,57.70
2024-01-11T22:02:50.764Z,58.33
2024-01-11T22:05:18.150Z,56.63
2024-01-11T22:07:45.216Z,55.77
2024-01-11T22:10:12.268Z,56.13
2024-01-11T22:12:39.761Z,57.47
2024-01-11T22:15:09.170Z,57.77
2024-01-11T22:17:36.874Z,56.70
2024-01-11T22:20:04.147Z,54.83
2024-01-11T22:22:31.304Z,57.97
2024-01-11T22:24:58.309Z,57.97
2024-01-11T22:27:26.192Z,58.90
2024-01-11T22:29:53.310Z,58.50
2024-01-11T22:32:20.688Z,58.67
2024-01-11T22:34:47.746Z,60.43
2024-01-11T22:37:15.128Z,61.07
2024-01-11T22:39:42.794Z,62.23
2024-01-11T22:42:09.822Z,60.87
2024-01-11T22:44:36.996Z,59.30
2024-01-11T22:47:04.391Z,61.33
2024-01-11T22:49:31.463Z,58.43
2024-01-11T22:51:58.867Z,54.67
2024-01-11T22:54:26.061Z,53.03
2024-01-11T22:56:56.861Z,50.53
2024-01-11T22:59:24.049Z,51.83
2024-01-11T23:01:51.662Z,55.37
2024-01-11T23:04:18.596Z,54.07
2024-01-11T23:06:45.704Z,54.70
2024-01-11T23:09:13.002Z,51.93
2024-01-11T23:11:40.394Z,49.93
2024-01-11T23:14:09.639Z,50.70
2024-01-11T23:16:37.636Z,50.83
2024-01-11T23:19:04.798Z,52.30
2024-01-11T23:21:32.279Z,52.60
2024-01-11T23:23:59.455Z,53.70
2024-01-11T23:26:26.505Z,54.03
2024-01-11T23:28:53.759Z,54.00
2024-01-11T23:31:21.146Z,54.43
2024-01-11T23:33:48.361Z,51.50
2024-01-11T23:36:15.611Z,53.90
2024-01-11T23:38:42.742Z,49.97
2024-01-11T23:41:09.887Z,52.30
2024-01-11T23:43:37.916Z,50.37
2024-01-11T23:46:05.370Z,50.10
2024-01-11T23:48:38.132Z,56.30
2024-01-11T23:51:05.828Z,52.67
2024-01-11T23:53:32.959Z,56.50
2024-01-11T23:56:00.356Z,55.47
2024-01-11T23:58:27.361Z,56.83
